Time;durP1;ratioP1;P1;durP2;ratioP2;P2;SDS_P1;SDS_P2;PMS_P1;PMS_P2;Temp;Humidity;BMP_temperature;BMP_pressure;BME280_temperature;BME280_humidity;BME280_pressure;Samples;Min_cycle;Max_cycle;Signal;HPM_P1;HPM_P2
2023/11/04 00:02:24;;;;;;;0.00;0.00;;;;;;;-144.99;100.00;67352.69;4958063;28;20213;-84
2023/11/04 00:04:51;;;;;;;0.00;0.00;;;;;;;-144.99;100.00;67352.69;4957258;28;20218;-84
2023/11/04 00:07:17;;;;;;;0.00;0.00;;;;;;;-144.99;100.00;67352.69;4956670;28;20224;-83
2023/11/04 00:09:43;;;;;;;0.00;0.00;;;;;;;-144.99;100.00;67352.69;4956887;28;20186;-84
2023/11/04 00:12:08;;;;;;;0.10;0.10;;;;;;;-144.99;100.00;67352.69;4958458;28;20189;-84
2023/11/04 00:14:33;;;;;;;0.00;0.00;;;;;;;-144.99;100.00;67352.69;4957583;28;20213;-82
2023/11/04 00:16:59;;;;;;;3.20;1.23;;;;;;;-144.99;100.00;67352.69;4955612;28;20186;-83
2023/11/04 00:19:24;;;;;;;0.00;0.00;;;;;;;-144.99;100.00;67352.69;4956519;28;20186;-84
2023/11/04 00:21:49;;;;;;;0.00;0.00;;;;;;;-144.99;100.00;67352.69;4958004;28;20550;-83
2023/11/04 00:24:15;;;;;;;0.57;0.57;;;;;;;-144.99;100.00;67352.69;4955829;28;20214;-84
2023/11/04 00:30:55;;;;;;;1.80;0.40;;;;;;;-144.99;100.00;67352.69;4963656;28;20186;-85
2023/11/04 00:33:44;;;;;;;0.40;0.40;;;;;;;-144.99;100.00;67352.69;4931147;29;20199;-85
2023/11/04 00:39:50;;;;;;;0.00;0.00;;;;;;;-144.99;100.00;67352.69;4960505;28;20693;-85
2023/11/04 00:42:59;;;;;;;0.00;0.00;;;;;;;-144.99;100.00;67352.69;4962447;28;20621;-86
2023/11/04 00:45:28;;;;;;;0.10;0.10;;;;;;;-144.99;100.00;67352.69;4991399;28;20205;-85
2023/11/04 00:47:53;;;;;;;0.30;0.30;;;;;;;-144.99;100.00;67352.69;4983818;22;20221;-83
2023/11/04 00:50:19;;;;;;;0.00;0.00;;;;;;;-144.99;100.00;67352.69;5014873;28;20653;-83
2023/11/04 00:52:44;;;;;;;0.17;0.17;;;;;;;-144.99;100.00;67352.69;4974121;28;20182;-83
2023/11/04 00:55:09;;;;;;;0.93;0.20;;;;;;;-144.99;100.00;67352.69;5026704;28;20217;-84
2023/11/04 00:57:35;;;;;;;0.00;0.00;;;;;;;-144.99;100.00;67352.69;5009747;28;20223;-84
2023/11/04 01:00:00;;;;;;;0.00;0.00;;;;;;;-144.99;100.00;67352.69;4973411;28;20223;-83
2023/11/04 01:02:25;;;;;;;0.00;0.00;;;;;;;-144.99;100.00;67352.69;5016162;28;20285;-84
2023/11/04 01:04:51;;;;;;;0.10;0.10;;;;;;;-144.99;100.00;67352.69;5017435;28;20206;-84
2023/11/04 01:07:16;;;;;;;0.67;0.50;;;;;;;-144.99;100.00;67352.69;5027076;28;20186;-84
2023/11/04 01:09:41;;;;;;;0.30;0.30;;;;;;;-144.99;100.00;67352.69;5032996;28;20181;-83
2023/11/04 01:12:07;;;;;;;3.10;0.77;;;;;;;-144.99;100.00;67352.69;4989338;28;20174;-83
2023/11/04 01:14:34;;;;;;;0.30;0.30;;;;;;;-144.99;100.00;67352.69;5031840;28;20665;-83
2023/11/04 01:16:59;;;;;;;0.00;0.00;;;;;;;-144.99;100.00;67352.69;4990593;28;20190;-83
2023/11/04 01:19:24;;;;;;;0.37;0.33;;;;;;;-144.99;100.00;67352.69;4988691;28;20271;-83
2023/11/04 01:21:50;;;;;;;0.00;0.00;;;;;;;-144.99;100.00;67352.69;4997334;28;20193;-83
2023/11/04 01:24:15;;;;;;;0.10;0.10;;;;;;;-144.99;100.00;67352.69;4982054;28;20325;-83
2023/11/04 01:26:41;;;;;;;0.53;0.53;;;;;;;-144.99;100.00;67352.69;5004877;28;20812;-83
2023/11/04 01:29:08;;;;;;;0.97;0.50;;;;;;;-144.99;100.00;67352.69;5018388;28;20646;-83
2023/11/04 01:31:33;;;;;;;1.90;1.80;;;;;;;-144.99;100.00;67352.69;5008976;28;20186;-83
2023/11/04 01:33:59;;;;;;;0.77;0.40;;;;;;;-144.99;100.00;67352.69;5014880;28;20220;-83
2023/11/04 01:36:24;;;;;;;13.27;1.40;;;;;;;-144.99;100.00;67352.69;4989677;28;20186;-83
2023/11/04 01:38:49;;;;;;;0.00;0.00;;;;;;;-144.99;100.00;67352.69;4992891;28;20184;-83
2023/11/04 01:41:15;;;;;;;0.10;0.10;;;;;;;-144.99;100.00;67352.69;4973046;28;20181;-83
2023/11/04 01:43:42;;;;;;;0.00;0.00;;;;;;;-144.99;100.00;67352.69;4974090;28;20272;-83
2023/11/04 01:46:13;;;;;;;0.00;0.00;;;;;;;-144.99;100.00;67352.69;4971041;28;20212;-82
2023/11/04 01:48:39;;;;;;;0.60;0.60;;;;;;;-144.99;100.00;67352.69;4970672;28;20178;-83
2023/11/04 01:51:05;;;;;;;0.20;0.20;;;;;;;-144.99;100.00;67352.69;4970468;28;20193;-82
2023/11/04 01:53:31;;;;;;;2.03;0.47;;;;;;;-144.99;100.00;67352.69;4967504;28;20186;-82
2023/11/04 01:55:57;;;;;;;0.00;0.00;;;;;;;-144.99;100.00;67352.69;5014038;28;20204;-83
2023/11/04 01:58:22;;;;;;;6.43;0.90;;;;;;;-144.99;100.00;67352.69;5021315;28;20174;-82
2023/11/04 02:00:48;;;;;;;0.03;0.03;;;;;;;-144.99;100.00;67352.69;5018070;28;20174;-83
2023/11/04 02:03:16;;;;;;;0.43;0.40;;;;;;;-144.99;100.00;67352.69;4974782;28;20195;-83
2023/11/04 02:05:42;;;;;;;0.33;0.07;;;;;;;-144.99;100.00;67352.69;4974532;28;20206;-82
2023/11/04 02:08:08;;;;;;;0.20;0.03;;;;;;;-144.99;100.00;67352.69;5018445;28;20280;-83
2023/11/04 02:10:34;;;;;;;0.57;0.40;;;;;;;-144.99;100.00;67352.69;5007441;28;20193;-83
2023/11/04 02:12:59;;;;;;;0.20;0.20;;;;;;;-144.99;100.00;67352.69;5013837;28;20239;-83
2023/11/04 02:15:25;;;;;;;4.90;1.40;;;;;;;-144.99;100.00;67352.69;4989480;28;20201;-83
2023/11/04 02:17:50;;;;;;;0.47;0.33;;;;;;;-144.99;100.00;67352.69;4995319;28;20174;-81
2023/11/04 02:20:20;;;;;;;0.20;0.20;;;;;;;-144.99;100.00;67352.69;4984162;28;20271;-82
2023/11/04 02:22:45;;;;;;;0.30;0.30;;;;;;;-144.99;100.00;67352.69;5015282;28;20210;-82
2023/11/04 02:25:11;;;;;;;0.10;0.10;;;;;;;-144.99;100.00;67352.69;5026682;28;20564;-82
2023/11/04 02:27:37;;;;;;;1.50;0.37;;;;;;;-144.99;100.00;67352.69;4970562;28;20189;-80
2023/11/04 02:30:03;;;;;;;0.00;0.00;;;;;;;-144.99;100.00;67352.69;4972686;28;20201;-82
2023/11/04 02:32:30;;;;;;;1.40;0.53;;;;;;;-144.99;100.00;67352.69;5051539;28;20198;-83
2023/11/04 02:34:56;;;;;;;0.00;0.00;;;;;;;-144.99;100.00;67352.69;5016607;28;20244;-83
2023/11/04 02:37:21;;;;;;;0.10;0.10;;;;;;;-144.99;100.00;67352.69;4971443;28;20243;-82
2023/11/04 02:39:47;;;;;;;0.00;0.00;;;;;;;-144.99;100.00;67352.69;4970190;28;20634;-82
2023/11/04 02:42:12;;;;;;;0.00;0.00;;;;;;;-144.99;100.00;67352.69;4969940;28;20202;-81
2023/11/04 02:44:37;;;;;;;6.80;1.40;;;;;;;-144.99;100.00;67352.69;4969749;28;20217;-83
2023/11/04 02:47:03;;;;;;;0.00;0.00;;;;;;;-144.99;100.00;67352.69;4976369;28;20340;-83
2023/11/04 02:49:28;;;;;;;0.47;0.47;;;;;;;-144.99;100.00;67352.69;4974463;28;20210;-83
2023/11/04 02:51:53;;;;;;;15.30;0.77;;;;;;;-144.99;100.00;67352.69;4968854;28;20671;-82
2023/11/04 02:54:19;;;;;;;0.20;0.20;;;;;;;-144.99;100.00;67352.69;4969199;28;20388;-82
2023/11/04 02:56:44;;;;;;;0.20;0.10;;;;;;;-144.99;100.00;67352.69;4991888;28;20642;-83
2023/11/04 02:59:09;;;;;;;0.07;0.07;;;;;;;-144.99;100.00;67352.69;5020516;28;20647;-83
2023/11/04 03:01:35;;;;;;;0.00;0.00;;;;;;;-144.99;100.00;67352.69;4977791;28;20240;-83
2023/11/04 03:04:02;;;;;;;0.00;0.00;;;;;;;-144.99;100.00;67352.69;4976194;28;20243;-83
2023/11/04 03:06:28;;;;;;;1.37;1.27;;;;;;;-144.99;100.00;67352.69;4993977;28;20182;-82
2023/11/04 03:08:53;;;;;;;0.00;0.00;;;;;;;-144.99;100.00;67352.69;4986007;28;20265;-82
2023/11/04 03:11:18;;;;;;;0.00;0.00;;;;;;;-144.99;100.00;67352.69;4975102;28;20273;-83
2023/11/04 03:13:45;;;;;;;0.00;0.00;;;;;;;-144.99;100.00;67352.69;5017740;28;20279;-82
2023/11/04 03:16:20;;;;;;;3.03;1.50;;;;;;;-144.99;100.00;67352.69;4984298;28;20580;-83
2023/11/04 03:18:45;;;;;;;0.00;0.00;;;;;;;-144.99;100.00;67352.69;5004882;28;20189;-82
2023/11/04 03:21:11;;;;;;;0.00;0.00;;;;;;;-144.99;100.00;67352.69;4975684;28;20236;-82
2023/11/04 03:23:37;;;;;;;0.00;0.00;;;;;;;-144.99;100.00;67352.69;4977014;28;20196;-83
2023/11/04 03:26:02;;;;;;;0.00;0.00;;;;;;;-144.99;100.00;67352.69;4974962;28;20751;-82
2023/11/04 03:28:28;;;;;;;0.00;0.00;;;;;;;-144.99;100.00;67352.69;4976255;28;20662;-83
2023/11/04 03:30:53;;;;;;;0.00;0.00;;;;;;;-144.99;100.00;67352.69;5012158;28;20182;-82
2023/11/04 03:33:19;;;;;;;0.23;0.23;;;;;;;-144.99;100.00;67352.69;4989713;28;20202;-82
2023/11/04 03:35:45;;;;;;;0.00;0.00;;;;;;;-144.99;100.00;67352.69;5002866;28;20210;-83
2023/11/04 03:38:10;;;;;;;0.00;0.00;;;;;;;-144.99;100.00;67352.69;4976114;28;20575;-83
2023/11/04 03:40:36;;;;;;;0.00;0.00;;;;;;;-144.99;100.00;67352.69;4974883;28;20186;-82
2023/11/04 03:43:01;;;;;;;0.00;0.00;;;;;;;-144.99;100.00;67352.69;5018428;28;20240;-82
2023/11/04 03:45:27;;;;;;;0.00;0.00;;;;;;;-144.99;100.00;67352.69;5016074;28;20690;-82
2023/11/04 03:47:52;;;;;;;0.00;0.00;;;;;;;-144.99;100.00;67352.69;5010648;28;20259;-83
2023/11/04 03:50:17;;;;;;;0.00;0.00;;;;;;;-144.99;100.00;67352.69;4981203;28;20181;-82
2023/11/04 03:52:43;;;;;;;0.10;0.10;;;;;;;-144.99;100.00;67352.69;4971875;28;20185;-82
2023/11/04 03:55:09;;;;;;;0.00;0.00;;;;;;;-144.99;100.00;67352.69;5016534;28;20220;-83
2023/11/04 03:57:34;;;;;;;0.00;0.00;;;;;;;-144.99;100.00;67352.69;4974475;28;20193;-82
2023/11/04 04:00:00;;;;;;;0.20;0.20;;;;;;;-144.99;100.00;67352.69;4973569;28;20570;-83
2023/11/04 04:02:25;;;;;;;0.00;0.00;;;;;;;-144.99;100.00;67352.69;5033133;28;20198;-82
2023/11/04 04:04:50;;;;;;;0.00;0.00;;;;;;;-144.99;100.00;67352.69;5033263;28;20210;-82
2023/11/04 04:07:16;;;;;;;0.00;0.00;;;;;;;-144.99;100.00;67352.69;4979690;28;20205;-82
2023/11/04 04:09:42;;;;;;;0.00;0.00;;;;;;;-144.99;100.00;67352.69;4970848;28;20190;-82
2023/11/04 04:12:07;;;;;;;0.00;0.00;;;;;;;-144.99;100.00;67352.69;5014166;28;20183;-82
2023/11/04 04:14:32;;;;;;;0.73;0.73;;;;;;;-144.99;100.00;67352.69;4994132;28;20206;-81
2023/11/04 04:16:58;;;;;;;0.00;0.00;;;;;;;-144.99;100.00;67352.69;4993150;28;20174;-82
2023/11/04 04:19:23;;;;;;;0.00;0.00;;;;;;;-144.99;100.00;67352.69;4971876;28;20225;-82
2023/11/04 04:21:49;;;;;;;1.03;1.03;;;;;;;-144.99;100.00;67352.69;4973522;28;20263;-82
2023/11/04 04:24:14;;;;;;;0.40;0.40;;;;;;;-144.99;100.00;67352.69;5023030;28;20214;-81
2023/11/04 04:26:39;;;;;;;0.30;0.20;;;;;;;-144.99;100.00;67352.69;5032860;28;20178;-81
2023/11/04 04:29:06;;;;;;;0.00;0.00;;;;;;;-144.99;100.00;67352.69;4985937;28;20545;-81
2023/11/04 04:31:32;;;;;;;0.17;0.17;;;;;;;-144.99;100.00;67352.69;4986659;28;20582;-82
2023/11/04 04:33:57;;;;;;;0.37;0.37;;;;;;;-144.99;100.00;67352.69;4972607;28;20184;-82
2023/11/04 04:36:22;;;;;;;0.50;0.50;;;;;;;-144.99;100.00;67352.69;4970428;28;20196;-82
2023/11/04 04:38:48;;;;;;;0.27;0.27;;;;;;;-144.99;100.00;67352.69;4971298;28;20182;-82
2023/11/04 04:41:14;;;;;;;0.00;0.00;;;;;;;-144.99;100.00;67352.69;4971451;28;20661;-82
2023/11/04 04:43:39;;;;;;;10.73;0.20;;;;;;;-144.99;100.00;67352.69;4972569;28;20236;-82
2023/11/04 04:46:04;;;;;;;0.00;0.00;;;;;;;-144.99;100.00;67352.69;4982334;28;20206;-82
2023/11/04 04:48:30;;;;;;;4.43;1.07;;;;;;;-144.99;100.00;67352.69;5004013;28;20194;-82
2023/11/04 04:50:55;;;;;;;0.00;0.00;;;;;;;-144.99;100.00;67352.69;4979869;28;20343;-82
2023/11/04 04:53:21;;;;;;;0.00;0.00;;;;;;;-144.99;100.00;67352.69;5014394;28;20682;-81
2023/11/04 04:55:47;;;;;;;0.00;0.00;;;;;;;-144.99;100.00;67352.69;5007202;28;20262;-83
2023/11/04 04:58:12;;;;;;;0.10;0.10;;;;;;;-144.99;100.00;67352.69;4993524;28;20217;-82
2023/11/04 05:00:38;;;;;;;0.00;0.00;;;;;;;-144.99;100.00;67352.69;4986748;28;20178;-83
2023/11/04 05:03:05;;;;;;;0.20;0.20;;;;;;;-144.99;100.00;67352.69;4978893;28;20202;-83
2023/11/04 05:05:32;;;;;;;0.50;0.50;;;;;;;-144.99;100.00;67352.69;5014704;28;20216;-82
2023/11/04 05:07:57;;;;;;;0.17;0.17;;;;;;;-144.99;100.00;67352.69;4970993;28;20186;-82
2023/11/04 05:10:22;;;;;;;1.70;0.70;;;;;;;-144.99;100.00;67352.69;5014326;28;20192;-82
2023/11/04 05:12:48;;;;;;;0.00;0.00;;;;;;;-144.99;100.00;67352.69;5004377;28;20277;-81
2023/11/04 05:15:13;;;;;;;0.00;0.00;;;;;;;-144.99;100.00;67352.69;5021444;28;20694;-82
2023/11/04 05:17:39;;;;;;;0.10;0.10;;;;;;;-144.99;100.00;67352.69;4998949;28;20208;-81
2023/11/04 05:20:05;;;;;;;0.00;0.00;;;;;;;-144.99;100.00;67352.69;5029409;28;20221;-82
2023/11/04 05:22:30;;;;;;;0.00;0.00;;;;;;;-144.99;100.00;67352.69;4975478;28;20217;-83
2023/11/04 05:24:56;;;;;;;1.33;1.33;;;;;;;-144.99;100.00;67352.69;4974494;28;20210;-82
2023/11/04 05:27:21;;;;;;;2.53;0.93;;;;;;;-144.99;100.00;67352.69;5016551;28;20259;-82
2023/11/04 05:29:46;;;;;;;0.03;0.03;;;;;;;-144.99;100.00;67352.69;5016767;28;20188;-82
2023/11/04 05:32:12;;;;;;;0.53;0.53;;;;;;;-144.99;100.00;67352.69;5024199;28;20663;-82
2023/11/04 05:34:37;;;;;;;0.00;0.00;;;;;;;-144.99;100.00;67352.69;5034779;28;20626;-82
2023/11/04 05:37:03;;;;;;;0.27;0.27;;;;;;;-144.99;100.00;67352.69;4991513;28;20656;-82
2023/11/04 05:39:30;;;;;;;0.20;0.20;;;;;;;-144.99;100.00;67352.69;5016681;28;20670;-82
2023/11/04 05:41:55;;;;;;;0.00;0.00;;;;;;;-144.99;100.00;67352.69;5015649;28;20193;-82
2023/11/04 05:44:21;;;;;;;1.23;1.13;;;;;;;-144.99;100.00;67352.69;5016952;28;20220;-81
2023/11/04 05:46:49;;;;;;;0.20;0.20;;;;;;;-144.99;100.00;67352.69;5006779;28;20194;-82
2023/11/04 05:49:15;;;;;;;0.00;0.00;;;;;;;-144.99;100.00;67352.69;4981085;28;20689;-82
2023/11/04 05:51:40;;;;;;;1.50;1.40;;;;;;;-144.99;100.00;67352.69;4973988;28;20190;-82
2023/11/04 05:54:05;;;;;;;0.40;0.40;;;;;;;-144.99;100.00;67352.69;4976594;28;20578;-82
2023/11/04 05:56:31;;;;;;;3.00;0.83;;;;;;;-144.99;100.00;67352.69;5034242;28;20182;-82
2023/11/04 05:58:56;;;;;;;5.60;0.73;;;;;;;-144.99;100.00;67352.69;5032486;28;20194;-82
2023/11/04 06:01:24;;;;;;;0.40;0.40;;;;;;;-144.99;100.00;67352.69;4974067;28;20214;-82
2023/11/04 06:03:51;;;;;;;0.47;0.47;;;;;;;-144.99;100.00;67352.69;5013871;28;20186;-82
2023/11/04 06:06:20;;;;;;;1.03;0.63;;;;;;;-144.99;100.00;67352.69;5013841;28;20226;-82
2023/11/04 06:08:46;;;;;;;0.10;0.10;;;;;;;-144.99;100.00;67352.69;5003540;28;20182;-82
2023/11/04 06:11:12;;;;;;;0.17;0.17;;;;;;;-144.99;100.00;67352.69;4988602;28;20196;-82
2023/11/04 06:13:37;;;;;;;0.20;0.20;;;;;;;-144.99;100.00;67352.69;5030169;28;20205;-82
2023/11/04 06:16:02;;;;;;;0.23;0.23;;;;;;;-144.99;100.00;67352.69;4987370;28;20206;-82
2023/11/04 06:18:28;;;;;;;0.83;0.80;;;;;;;-144.99;100.00;67352.69;4973409;28;20186;-82
2023/11/04 06:20:53;;;;;;;3.37;0.80;;;;;;;-144.99;100.00;67352.69;5010337;28;20200;-81
2023/11/04 06:23:19;;;;;;;0.40;0.40;;;;;;;-144.99;100.00;67352.69;4988829;28;20293;-82
2023/11/04 06:25:44;;;;;;;0.80;0.80;;;;;;;-144.99;100.00;67352.69;5044637;28;20229;-81
2023/11/04 06:28:10;;;;;;;0.57;0.57;;;;;;;-144.99;100.00;67352.69;4969751;23;20237;-82
2023/11/04 06:30:35;;;;;;;2.33;0.90;;;;;;;-144.99;100.00;67352.69;4952090;28;20356;-82
2023/11/04 06:33:02;;;;;;;1.50;0.63;;;;;;;-144.99;100.00;67352.69;4957932;28;20684;-83
2023/11/04 06:35:28;;;;;;;0.07;0.07;;;;;;;-144.99;100.00;67352.69;4957911;28;20213;-83
2023/11/04 06:37:54;;;;;;;0.37;0.37;;;;;;;-144.99;100.00;67352.69;4959628;28;20179;-83
2023/11/04 06:40:20;;;;;;;0.40;0.40;;;;;;;-144.99;100.00;67352.69;4959189;28;20189;-83
2023/11/04 06:42:45;;;;;;;0.67;0.47;;;;;;;-144.99;100.00;67352.69;4956962;28;20206;-82
2023/11/04 06:45:11;;;;;;;0.30;0.30;;;;;;;-144.99;100.00;67352.69;4956914;28;20210;-82
2023/11/04 06:47:36;;;;;;;0.00;0.00;;;;;;;-144.99;100.00;67352.69;4957286;28;20209;-83
2023/11/04 06:50:04;;;;;;;0.00;0.00;;;;;;;-144.99;100.00;67352.69;4958253;28;20212;-82
2023/11/04 06:52:30;;;;;;;0.10;0.10;;;;;;;-144.99;100.00;67352.69;4958460;28;20182;-83
2023/11/04 06:54:56;;;;;;;0.00;0.00;;;;;;;-144.99;100.00;67352.69;4959590;28;20205;-83
2023/11/04 06:57:21;;;;;;;2.60;0.63;;;;;;;-144.99;100.00;67352.69;4956994;28;20695;-82
2023/11/04 06:59:47;;;;;;;0.23;0.10;;;;;;;-144.99;100.00;67352.69;4955949;29;20187;-82
2023/11/04 07:02:12;;;;;;;0.53;0.30;;;;;;;-144.99;100.00;67352.69;4955355;28;20210;-82
2023/11/04 07:04:37;;;;;;;0.00;0.00;;;;;;;-144.99;100.00;67352.69;4955404;28;20210;-83
2023/11/04 07:07:03;;;;;;;0.00;0.00;;;;;;;-144.99;100.00;67352.69;4955682;28;20656;-84
2023/11/04 07:09:32;;;;;;;0.93;0.63;;;;;;;-144.99;100.00;67352.69;4954942;28;20279;-83
2023/11/04 07:11:57;;;;;;;0.27;0.27;;;;;;;-144.99;100.00;67352.69;4945875;28;20195;-83
2023/11/04 07:14:24;;;;;;;0.03;0.03;;;;;;;-144.99;100.00;67352.69;4952249;28;20221;-83
2023/11/04 07:16:49;;;;;;;0.10;0.10;;;;;;;-144.99;100.00;67352.69;4953085;29;20830;-83
2023/11/04 07:19:15;;;;;;;0.00;0.00;;;;;;;-144.99;100.00;67352.69;4953821;28;20189;-83
2023/11/04 07:21:41;;;;;;;0.00;0.00;;;;;;;-144.99;100.00;67352.69;4952309;28;20206;-83
2023/11/04 07:24:07;;;;;;;0.23;0.23;;;;;;;-144.99;100.00;67352.69;4953316;28;20210;-82
2023/11/04 07:26:32;;;;;;;0.20;0.20;;;;;;;-144.99;100.00;67352.69;4953886;28;20663;-83
2023/11/04 07:28:58;;;;;;;0.37;0.37;;;;;;;-144.99;100.00;67352.69;4954168;28;20214;-83
2023/11/04 07:31:23;;;;;;;1.40;0.60;;;;;;;-144.99;100.00;67352.69;4954042;28;20270;-83
2023/11/04 07:33:49;;;;;;;0.43;0.43;;;;;;;-144.99;100.00;67352.69;4953814;28;20324;-83
2023/11/04 07:36:25;;;;;;;0.20;0.20;;;;;;;-144.99;100.00;67352.69;4952849;28;20189;-83
2023/11/04 07:38:52;;;;;;;0.00;0.00;;;;;;;-144.99;100.00;67352.69;4952437;28;20182;-83
2023/11/04 07:41:18;;;;;;;0.20;0.20;;;;;;;-144.99;100.00;67352.69;4953570;28;20652;-82
2023/11/04 07:43:43;;;;;;;0.10;0.10;;;;;;;-144.99;100.00;67352.69;4951369;28;20676;-83
2023/11/04 07:46:08;;;;;;;0.20;0.20;;;;;;;-144.99;100.00;67352.69;4952142;28;20183;-83
2023/11/04 07:48:34;;;;;;;0.30;0.30;;;;;;;-144.99;100.00;67352.69;4953723;28;20258;-83
2023/11/04 07:50:59;;;;;;;0.40;0.33;;;;;;;-144.99;100.00;67352.69;4952086;28;20187;-83
2023/11/04 07:53:24;;;;;;;0.00;0.00;;;;;;;-144.99;100.00;67352.69;4952032;28;20179;-83
2023/11/04 07:55:50;;;;;;;0.00;0.00;;;;;;;-144.99;100.00;67352.69;4952579;28;20206;-83
2023/11/04 07:58:16;;;;;;;1.23;0.57;;;;;;;-144.99;100.00;67352.69;4951088;28;20178;-83
2023/11/04 08:00:43;;;;;;;0.00;0.00;;;;;;;-144.99;100.00;67352.69;4951719;29;20195;-83
2023/11/04 08:03:08;;;;;;;5.73;0.73;;;;;;;-144.99;100.00;67352.69;4946293;28;20672;-83
2023/11/04 08:05:36;;;;;;;0.00;0.00;;;;;;;-144.99;100.00;67352.69;4953020;28;20252;-83
2023/11/04 08:08:02;;;;;;;0.00;0.00;;;;;;;-144.99;100.00;67352.69;4948567;29;20212;-83
2023/11/04 08:10:27;;;;;;;0.10;0.10;;;;;;;-144.99;100.00;67352.69;4960133;28;20224;-83
2023/11/04 08:12:53;;;;;;;0.00;0.00;;;;;;;-144.99;100.00;67352.69;4950749;28;20603;-83
2023/11/04 08:15:18;;;;;;;0.00;0.00;;;;;;;-144.99;100.00;67352.69;4947169;28;20206;-82
2023/11/04 08:17:43;;;;;;;2.27;0.60;;;;;;;-144.99;100.00;67352.69;4952901;28;20209;-84
2023/11/04 08:20:11;;;;;;;0.00;0.00;;;;;;;-144.99;100.00;67352.69;4949497;28;20225;-83
2023/11/04 08:22:40;;;;;;;0.00;0.00;;;;;;;-144.99;100.00;67352.69;4952164;28;20210;-83
2023/11/04 08:25:09;;;;;;;1.20;0.67;;;;;;;-144.99;100.00;67352.69;4951267;28;20592;-83
2023/11/04 08:27:34;;;;;;;0.63;0.63;;;;;;;-144.99;100.00;67352.69;4948053;28;20269;-82
2023/11/04 08:30:00;;;;;;;0.00;0.00;;;;;;;-144.99;100.00;67352.69;4951141;28;20246;-83
2023/11/04 08:32:25;;;;;;;0.23;0.23;;;;;;;-144.99;100.00;67352.69;4949683;28;20170;-83
2023/11/04 08:34:51;;;;;;;1.80;0.60;;;;;;;-144.99;100.00;67352.69;4964322;28;20286;-83
2023/11/04 08:37:16;;;;;;;0.07;0.07;;;;;;;-144.99;100.00;67352.69;4952549;28;20187;-84
2023/11/04 08:39:42;;;;;;;0.50;0.50;;;;;;;-144.99;100.00;67352.69;4952462;28;20244;-83
2023/11/04 08:42:07;;;;;;;0.10;0.10;;;;;;;-144.99;100.00;67352.69;4951266;29;20202;-83
2023/11/04 08:44:32;;;;;;;0.10;0.10;;;;;;;-144.99;100.00;67352.69;4992675;28;20206;-84
2023/11/04 08:46:58;;;;;;;0.33;0.33;;;;;;;-144.99;100.00;67352.69;4965307;28;20189;-83
2023/11/04 08:49:23;;;;;;;0.00;0.00;;;;;;;-144.99;100.00;67352.69;4948885;28;20602;-84
2023/11/04 08:51:49;;;;;;;0.40;0.40;;;;;;;-144.99;100.00;67352.69;4967076;28;20178;-83
2023/11/04 08:54:14;;;;;;;0.00;0.00;;;;;;;-144.99;100.00;67352.69;4951839;28;20207;-86
2023/11/04 08:56:40;;;;;;;0.30;0.30;;;;;;;-144.99;100.00;67352.69;4945279;28;20210;-86
2023/11/04 08:59:05;;;;;;;0.00;0.00;;;;;;;-144.99;100.00;67352.69;4954839;28;20265;-84
2023/11/04 09:01:30;;;;;;;0.00;0.00;;;;;;;-144.99;100.00;67352.69;4980947;28;20892;-83
2023/11/04 09:03:57;;;;;;;0.13;0.13;;;;;;;-144.99;100.00;67352.69;4952032;28;20282;-82
2023/11/04 09:06:22;;;;;;;0.20;0.20;;;;;;;-144.99;100.00;67352.69;4949014;28;20635;-82
2023/11/04 09:08:49;;;;;;;1.93;0.43;;;;;;;-144.99;100.00;67352.69;4949831;28;20269;-82
2023/11/04 09:11:14;;;;;;;0.90;0.43;;;;;;;-144.99;100.00;67352.69;4950862;29;20228;-82
2023/11/04 09:13:40;;;;;;;0.30;0.30;;;;;;;-144.99;100.00;67352.69;4948360;28;20175;-82
2023/11/04 09:16:06;;;;;;;0.00;0.00;;;;;;;-144.99;100.00;67352.69;4967019;28;20194;-82
2023/11/04 09:18:34;;;;;;;0.97;0.73;;;;;;;-144.99;100.00;67352.69;4946062;28;20180;-82
2023/11/04 09:20:59;;;;;;;0.40;0.40;;;;;;;-144.99;100.00;67352.69;4956603;28;20555;-82
2023/11/04 09:23:24;;;;;;;0.43;0.20;;;;;;;-144.99;100.00;67352.69;4951572;28;20281;-82
2023/11/04 09:25:50;;;;;;;0.67;0.30;;;;;;;-144.99;100.00;67352.69;4944013;28;20681;-82
2023/11/04 09:28:15;;;;;;;1.30;1.20;;;;;;;-144.99;100.00;67352.69;4949245;28;20274;-82
2023/11/04 09:30:41;;;;;;;0.23;0.23;;;;;;;-144.99;100.00;67352.69;4946748;29;20183;-82
2023/11/04 09:33:08;;;;;;;1.80;1.37;;;;;;;-144.99;100.00;67352.69;4966224;28;20182;-82
2023/11/04 09:35:34;;;;;;;0.83;0.70;;;;;;;-144.99;100.00;67352.69;4949985;28;20205;-82
2023/11/04 09:37:59;;;;;;;0.30;0.30;;;;;;;-144.99;100.00;67352.69;4950037;29;20182;-82
2023/11/04 09:40:24;;;;;;;0.50;0.37;;;;;;;-144.99;100.00;67352.69;4951821;28;20542;-82
2023/11/04 09:42:50;;;;;;;0.67;0.67;;;;;;;-144.99;100.00;67352.69;4951710;28;20248;-82
2023/11/04 09:45:20;;;;;;;0.23;0.20;;;;;;;-144.99;100.00;67352.69;4955298;28;20206;-83
2023/11/04 09:47:46;;;;;;;0.33;0.33;;;;;;;-144.99;100.00;67352.69;4956539;28;20257;-83
2023/11/04 09:50:12;;;;;;;0.97;0.67;;;;;;;-144.99;100.00;67352.69;4957548;28;20194;-82
2023/11/04 09:52:40;;;;;;;0.33;0.33;;;;;;;-144.99;100.00;67352.69;4957836;28;20179;-82
2023/11/04 09:55:06;;;;;;;0.00;0.00;;;;;;;-144.99;100.00;67352.69;4956619;28;20206;-83
2023/11/04 09:57:32;;;;;;;0.50;0.37;;;;;;;-144.99;100.00;67352.69;4957912;28;20552;-83
2023/11/04 10:00:01;;;;;;;0.13;0.10;;;;;;;-144.99;100.00;67352.69;4954248;28;20198;-84
2023/11/04 10:02:26;;;;;;;0.00;0.00;;;;;;;-144.99;100.00;67352.69;4955892;28;20226;-84
2023/11/04 10:04:52;;;;;;;0.00;0.00;;;;;;;-144.99;100.00;67352.69;4956082;28;20217;-84
2023/11/04 10:07:18;;;;;;;0.50;0.10;;;;;;;-144.99;100.00;67352.69;4952382;28;20233;-85
2023/11/04 10:09:44;;;;;;;0.00;0.00;;;;;;;-144.99;100.00;67352.69;4951740;28;20186;-87
2023/11/04 10:12:09;;;;;;;0.00;0.00;;;;;;;-144.99;100.00;67352.69;4952990;28;20362;-84
2023/11/04 10:14:35;;;;;;;0.23;0.23;;;;;;;-144.99;100.00;67352.69;4953474;28;20198;-85
2023/11/04 10:17:00;;;;;;;0.00;0.00;;;;;;;-144.99;100.00;67352.69;4952831;28;20190;-86
2023/11/04 10:19:26;;;;;;;0.50;0.50;;;;;;;-144.99;100.00;67352.69;4953506;28;20190;-83
2023/11/04 10:21:53;;;;;;;0.00;0.00;;;;;;;-144.99;100.00;67352.69;4953226;28;20206;-83
2023/11/04 10:24:18;;;;;;;0.93;0.80;;;;;;;-144.99;100.00;67352.69;4947238;28;20226;-83
2023/11/04 10:26:44;;;;;;;0.10;0.10;;;;;;;-144.99;100.00;67352.69;4968369;28;20583;-83
2023/11/04 10:29:09;;;;;;;0.00;0.00;;;;;;;-144.99;100.00;67352.69;4968366;28;20182;-83
2023/11/04 10:31:35;;;;;;;0.00;0.00;;;;;;;-144.99;100.00;67352.69;4954157;28;20269;-83
2023/11/04 10:34:04;;;;;;;0.07;0.07;;;;;;;-144.99;100.00;67352.69;4952143;28;20232;-83
2023/11/04 10:36:31;;;;;;;0.30;0.30;;;;;;;-144.99;100.00;67352.69;4953347;28;20182;-83
2023/11/04 10:39:00;;;;;;;0.33;0.33;;;;;;;-144.99;100.00;67352.69;4952174;29;20210;-83
2023/11/04 10:41:53;;;;;;;2.00;0.30;;;;;;;-144.99;100.00;67352.69;4952932;28;20179;-83
2023/11/04 10:44:24;;;;;;;0.40;0.23;;;;;;;-144.99;100.00;67352.69;4953264;28;20255;-83
2023/11/04 10:46:59;;;;;;;0.00;0.00;;;;;;;-144.99;100.00;67352.69;4949431;28;20178;-83
2023/11/04 10:49:41;;;;;;;0.00;0.00;;;;;;;-144.99;100.00;67352.69;4948579;28;20186;-83
2023/11/04 10:52:10;;;;;;;0.00;0.00;;;;;;;-144.99;100.00;67352.69;4953009;28;20186;-83
2023/11/04 10:54:40;;;;;;;0.00;0.00;;;;;;;-144.99;100.00;67352.69;4951277;28;20217;-84
2023/11/04 10:57:21;;;;;;;0.00;0.00;;;;;;;-144.99;100.00;67352.69;4949711;28;20183;-83
2023/11/04 11:00:13;;;;;;;0.20;0.20;;;;;;;-144.99;100.00;67352.69;4951301;28;20249;-83
2023/11/04 11:02:44;;;;;;;0.00;0.00;;;;;;;-144.99;100.00;67352.69;4951519;28;20360;-83
2023/11/04 11:05:11;;;;;;;0.10;0.10;;;;;;;-144.99;100.00;67352.69;4951329;28;20203;-84
2023/11/04 11:07:39;;;;;;;0.00;0.00;;;;;;;-144.99;100.00;67352.69;4951814;28;20186;-84
2023/11/04 11:10:07;;;;;;;3.03;0.47;;;;;;;-144.99;100.00;67352.69;4952812;28;20183;-83
2023/11/04 11:12:56;;;;;;;0.00;0.00;;;;;;;-144.99;100.00;67352.69;4950861;28;20690;-83
2023/11/04 11:15:23;;;;;;;0.00;0.00;;;;;;;-144.99;100.00;67352.69;4978162;28;20254;-83